Time;durP1;ratioP1;P1;durP2;ratioP2;P2;SDS_P1;SDS_P2;PMS_P1;PMS_P2;Temp;Humidity;BMP_temperature;BMP_pressure;BME280_temperature;BME280_humidity;BME280_pressure;Samples;Min_cycle;Max_cycle;Signal;HPM_P1;HPM_P2
2023/09/10 00:01:43;;;;;;;6.47;2.22;;;14.80;99.90;;;;;;5044465;28;20598;-88
2023/09/10 00:04:11;;;;;;;8.50;2.72;;;14.70;99.90;;;;;;5046702;28;20191;-89
2023/09/10 00:06:40;;;;;;;6.75;2.60;;;14.50;99.90;;;;;;5040063;28;20616;-89
2023/09/10 00:09:11;;;;;;;7.78;2.33;;;14.60;99.90;;;;;;5040940;28;20606;-89
2023/09/10 00:11:38;;;;;;;6.55;2.67;;;14.60;99.90;;;;;;5028641;28;20194;-89
2023/09/10 00:14:06;;;;;;;4.60;2.28;;;14.60;99.90;;;;;;5032441;28;20284;-89
2023/09/10 00:16:34;;;;;;;3.30;2.28;;;14.70;99.90;;;;;;5030821;28;20205;-89
2023/09/10 00:19:02;;;;;;;7.05;2.25;;;14.40;99.90;;;;;;5047472;28;20197;-89
2023/09/10 00:21:30;;;;;;;7.97;2.65;;;14.50;99.90;;;;;;5037527;28;20228;-89
2023/09/10 00:23:58;;;;;;;7.85;2.28;;;14.40;99.90;;;;;;5027234;28;20196;-89
2023/09/10 00:26:26;;;;;;;8.55;2.72;;;14.50;99.90;;;;;;5027092;28;20239;-89
2023/09/10 00:28:55;;;;;;;9.38;2.63;;;14.60;99.90;;;;;;5034383;28;20220;-89
2023/09/10 00:31:23;;;;;;;8.15;2.75;;;14.60;99.90;;;;;;5028126;28;20185;-89
2023/09/10 00:33:51;;;;;;;7.55;2.25;;;14.40;99.90;;;;;;5034043;28;20204;-89
2023/09/10 00:36:18;;;;;;;4.55;2.85;;;14.20;99.90;;;;;;5024059;28;20194;-89
2023/09/10 00:38:46;;;;;;;4.20;2.13;;;14.30;99.90;;;;;;5036161;28;20220;-89
2023/09/10 00:41:14;;;;;;;9.00;2.60;;;14.30;99.90;;;;;;5040660;28;20288;-89
2023/09/10 00:43:41;;;;;;;7.68;2.70;;;14.40;99.90;;;;;;5041175;28;20291;-89
2023/09/10 00:46:09;;;;;;;10.93;2.72;;;14.40;99.90;;;;;;5044172;28;20245;-89
2023/09/10 00:48:37;;;;;;;7.72;2.58;;;14.40;99.90;;;;;;5046787;28;20196;-88
2023/09/10 00:51:05;;;;;;;5.35;2.00;;;14.30;99.90;;;;;;5046614;28;20200;-88
2023/09/10 00:53:33;;;;;;;4.28;1.80;;;14.40;99.90;;;;;;5046977;28;20203;-88
2023/09/10 00:56:01;;;;;;;6.15;2.40;;;14.40;99.90;;;;;;5027465;28;20193;-88
2023/09/10 00:58:29;;;;;;;6.63;2.20;;;14.40;99.90;;;;;;5025748;28;20217;-88
2023/09/10 01:00:58;;;;;;;5.32;2.35;;;14.30;99.90;;;;;;5044059;28;20194;-89
2023/09/10 01:03:28;;;;;;;4.13;2.17;;;14.30;99.90;;;;;;5000305;28;20220;-87
2023/09/10 01:05:56;;;;;;;7.55;2.20;;;14.30;99.90;;;;;;5020823;28;20197;-89
2023/09/10 01:08:24;;;;;;;7.10;2.40;;;14.30;99.90;;;;;;5033443;28;20654;-88
2023/09/10 01:10:58;;;;;;;5.70;2.03;;;14.30;99.90;;;;;;5016352;28;20186;-89
2023/09/10 01:14:13;;;;;;;4.00;2.22;;;14.30;99.90;;;;;;5041128;28;20190;-89
2023/09/10 01:17:05;;;;;;;5.75;2.50;;;14.20;99.90;;;;;;5056598;28;20203;-88
2023/09/10 01:19:36;;;;;;;6.75;2.42;;;14.20;99.90;;;;;;5024491;28;20201;-88
2023/09/10 01:22:32;;;;;;;3.78;2.38;;;14.30;99.90;;;;;;5034177;28;20953;-87
2023/09/10 01:25:02;;;;;;;3.72;2.20;;;14.30;99.90;;;;;;5031355;28;20190;-88
2023/09/10 01:27:30;;;;;;;6.63;2.70;;;14.10;99.90;;;;;;5014164;28;20197;-89
2023/09/10 01:29:58;;;;;;;4.95;2.28;;;14.10;99.90;;;;;;5006946;28;20187;-88
2023/09/10 01:32:35;;;;;;;4.43;2.30;;;14.10;99.90;;;;;;5006787;28;20216;-88
2023/09/10 01:35:47;;;;;;;3.63;2.15;;;14.10;99.90;;;;;;5028968;28;20203;-90
2023/09/10 01:38:31;;;;;;;7.90;2.25;;;14.10;99.90;;;;;;5014533;28;20526;-88
2023/09/10 01:41:19;;;;;;;3.03;2.05;;;14.10;99.90;;;;;;5030212;28;20533;-89
2023/09/10 01:43:48;;;;;;;6.57;1.98;;;14.10;99.90;;;;;;5026491;28;20688;-90
2023/09/10 01:46:17;;;;;;;4.60;2.30;;;14.10;99.90;;;;;;5018471;28;20222;-89
2023/09/10 01:48:46;;;;;;;6.05;2.40;;;14.00;99.90;;;;;;5045291;28;20182;-89
2023/09/10 01:51:13;;;;;;;3.75;2.35;;;13.90;99.90;;;;;;5043599;28;20185;-88
2023/09/10 01:53:41;;;;;;;5.57;2.22;;;13.80;99.90;;;;;;5046732;28;20277;-90
2023/09/10 01:56:09;;;;;;;5.22;2.35;;;13.90;99.90;;;;;;5039600;28;20293;-89
2023/09/10 01:58:38;;;;;;;4.88;2.10;;;13.90;99.90;;;;;;5027585;28;20247;-89
2023/09/10 02:01:06;;;;;;;9.30;2.50;;;14.00;99.90;;;;;;5010439;28;20193;-90
2023/09/10 02:03:34;;;;;;;5.40;2.55;;;13.90;99.90;;;;;;5041288;28;20782;-88
2023/09/10 02:06:03;;;;;;;5.43;2.60;;;13.80;99.90;;;;;;5044477;28;20639;-88
2023/09/10 02:08:31;;;;;;;7.85;2.65;;;13.80;99.90;;;;;;5034498;28;20281;-89
2023/09/10 02:11:04;;;;;;;8.02;2.53;;;13.80;99.90;;;;;;5034639;28;20201;-89
2023/09/10 02:13:32;;;;;;;6.57;2.55;;;13.90;99.90;;;;;;5033214;28;20186;-89
2023/09/10 02:15:59;;;;;;;5.05;2.38;;;13.90;99.90;;;;;;5031400;28;20262;-89
2023/09/10 02:18:30;;;;;;;5.65;2.53;;;13.90;99.90;;;;;;5024169;28;20194;-89
2023/09/10 02:20:58;;;;;;;7.35;2.53;;;13.90;99.90;;;;;;5029459;28;20197;-90
2023/09/10 02:23:26;;;;;;;3.50;2.20;;;14.00;99.90;;;;;;5039942;28;20206;-90
2023/09/10 02:25:54;;;;;;;5.85;2.33;;;14.00;99.90;;;;;;5037539;28;20186;-88
2023/09/10 02:28:24;;;;;;;7.63;2.88;;;14.00;99.90;;;;;;5025675;28;20182;-89
2023/09/10 02:30:51;;;;;;;2.80;1.95;;;13.90;99.90;;;;;;5023409;28;20671;-88
2023/09/10 02:33:19;;;;;;;7.03;2.30;;;13.70;99.90;;;;;;5048453;28;20208;-89
2023/09/10 02:35:47;;;;;;;4.05;2.50;;;13.70;99.90;;;;;;5045448;28;20201;-89
2023/09/10 02:38:15;;;;;;;5.53;2.42;;;13.70;99.90;;;;;;5037763;28;20281;-89
2023/09/10 02:40:43;;;;;;;7.05;2.63;;;13.60;99.90;;;;;;5038245;28;20194;-89
2023/09/10 02:43:12;;;;;;;4.20;2.67;;;13.70;99.90;;;;;;5032695;28;20295;-88
2023/09/10 02:45:40;;;;;;;5.97;2.35;;;13.70;99.90;;;;;;5034738;28;20213;-89
2023/09/10 02:48:08;;;;;;;4.53;2.42;;;13.80;99.90;;;;;;5043210;28;20754;-90
2023/09/10 02:50:35;;;;;;;7.88;2.60;;;13.80;99.90;;;;;;5043991;28;20582;-89
2023/09/10 02:53:04;;;;;;;5.65;2.70;;;13.80;99.90;;;;;;5028215;27;20273;-89
2023/09/10 02:55:32;;;;;;;8.68;2.50;;;13.80;99.90;;;;;;5015939;28;20221;-89
2023/09/10 02:58:00;;;;;;;6.68;2.50;;;13.80;99.90;;;;;;5040094;28;20185;-89
2023/09/10 03:00:28;;;;;;;7.30;2.88;;;13.70;99.90;;;;;;5029247;28;20194;-88
2023/09/10 03:02:56;;;;;;;5.65;2.70;;;13.80;99.90;;;;;;5041255;28;20202;-89
2023/09/10 03:05:24;;;;;;;5.80;2.78;;;13.80;99.90;;;;;;5031010;28;20181;-89
2023/09/10 03:07:55;;;;;;;5.50;2.92;;;13.90;99.90;;;;;;5045614;28;20674;-89
2023/09/10 03:10:23;;;;;;;5.65;2.88;;;13.90;99.90;;;;;;5027380;28;20234;-88
2023/09/10 03:12:51;;;;;;;5.22;3.00;;;13.80;99.90;;;;;;5039826;28;20193;-89
2023/09/10 03:15:19;;;;;;;5.53;2.53;;;13.70;99.90;;;;;;5016115;28;20203;-88
2023/09/10 03:17:47;;;;;;;6.60;3.25;;;13.60;99.90;;;;;;5022727;28;20561;-88
2023/09/10 03:20:14;;;;;;;6.53;3.03;;;13.40;99.90;;;;;;5013878;28;20198;-88
2023/09/10 03:22:43;;;;;;;6.63;3.25;;;13.50;99.90;;;;;;5033053;28;20202;-89
2023/09/10 03:25:10;;;;;;;7.43;3.15;;;13.60;99.90;;;;;;5035674;28;20204;-89
2023/09/10 03:27:38;;;;;;;5.05;2.80;;;13.80;99.90;;;;;;5044624;28;20189;-89
2023/09/10 03:30:07;;;;;;;5.93;3.28;;;13.70;99.90;;;;;;5023068;28;20217;-89
2023/09/10 03:32:35;;;;;;;5.03;3.13;;;13.80;99.90;;;;;;5023055;28;20218;-88
2023/09/10 03:35:04;;;;;;;3.10;2.22;;;13.70;99.90;;;;;;5037157;28;20194;-89
2023/09/10 03:37:32;;;;;;;7.40;2.90;;;13.70;99.90;;;;;;5024979;28;20291;-89
2023/09/10 03:40:00;;;;;;;8.65;2.97;;;13.70;99.90;;;;;;5041045;28;20204;-89
2023/09/10 03:42:28;;;;;;;7.28;2.85;;;13.70;99.90;;;;;;5036524;28;20200;-89
2023/09/10 03:44:55;;;;;;;5.93;2.63;;;13.70;99.90;;;;;;4996457;28;20202;-88
2023/09/10 03:47:27;;;;;;;7.30;2.38;;;13.80;99.90;;;;;;5014894;28;20197;-88
2023/09/10 03:49:56;;;;;;;4.10;2.55;;;13.60;99.90;;;;;;5039342;28;20807;-89
2023/09/10 03:52:24;;;;;;;4.05;2.72;;;13.60;99.90;;;;;;5021966;28;20805;-88
2023/09/10 03:54:52;;;;;;;8.70;3.20;;;13.60;99.90;;;;;;5027424;28;20193;-88
2023/09/10 03:57:20;;;;;;;5.97;2.38;;;13.50;99.90;;;;;;5040380;28;20181;-89
2023/09/10 03:59:47;;;;;;;4.55;2.50;;;13.50;99.90;;;;;;5026354;28;20766;-89
2023/09/10 04:02:16;;;;;;;3.42;2.53;;;13.40;99.90;;;;;;5038499;28;20189;-89
2023/09/10 04:04:44;;;;;;;7.10;2.65;;;13.50;99.90;;;;;;5025149;28;20282;-89
2023/09/10 04:07:12;;;;;;;5.30;2.85;;;13.60;99.90;;;;;;5020444;28;20194;-90
2023/09/10 04:09:41;;;;;;;8.63;3.22;;;13.70;99.90;;;;;;5037647;28;20186;-89
2023/09/10 04:12:09;;;;;;;4.50;2.78;;;13.50;99.90;;;;;;5036575;28;20194;-89
2023/09/10 04:14:36;;;;;;;6.75;2.90;;;13.50;99.90;;;;;;5033442;28;20675;-88
2023/09/10 04:17:04;;;;;;;6.15;3.35;;;13.40;99.90;;;;;;5036198;28;20280;-88
2023/09/10 04:19:32;;;;;;;5.55;3.25;;;13.50;99.90;;;;;;5041761;28;20564;-88
2023/09/10 04:22:00;;;;;;;5.50;2.97;;;13.40;99.90;;;;;;5029090;28;20285;-89
2023/09/10 04:24:28;;;;;;;7.22;2.97;;;13.30;99.90;;;;;;5031446;28;20220;-88
2023/09/10 04:26:55;;;;;;;6.68;2.50;;;13.40;99.90;;;;;;5015884;28;20181;-88
2023/09/10 04:29:24;;;;;;;7.65;3.25;;;13.50;99.90;;;;;;5042309;28;20245;-87
2023/09/10 04:31:52;;;;;;;8.02;3.35;;;13.60;99.90;;;;;;5026546;28;20189;-88
2023/09/10 04:34:20;;;;;;;8.27;3.80;;;13.60;99.90;;;;;;5036014;28;20201;-89
2023/09/10 04:36:47;;;;;;;8.05;3.47;;;13.60;99.90;;;;;;5027874;28;20671;-88
2023/09/10 04:39:19;;;;;;;7.97;3.55;;;13.60;99.90;;;;;;5027802;28;20289;-89
2023/09/10 04:41:47;;;;;;;6.25;2.92;;;13.60;99.90;;;;;;5030376;28;20246;-89
2023/09/10 04:44:17;;;;;;;5.35;3.33;;;13.60;99.90;;;;;;5038025;28;20209;-87
2023/09/10 04:46:45;;;;;;;5.43;3.22;;;13.50;99.90;;;;;;5016342;28;20217;-89
2023/09/10 04:49:13;;;;;;;6.97;3.03;;;13.50;99.90;;;;;;5034247;28;20965;-89
2023/09/10 04:51:41;;;;;;;3.80;2.78;;;13.50;99.90;;;;;;5022660;28;20222;-88
2023/09/10 04:54:09;;;;;;;5.82;3.00;;;13.60;99.90;;;;;;5018986;28;20193;-88
2023/09/10 04:56:37;;;;;;;7.95;3.63;;;13.70;99.90;;;;;;5025830;28;20185;-89
2023/09/10 04:59:05;;;;;;;8.52;3.55;;;13.70;99.90;;;;;;5044108;28;20185;-89
2023/09/10 05:01:33;;;;;;;6.53;3.47;;;13.80;99.90;;;;;;5042707;28;20186;-88
2023/09/10 05:04:02;;;;;;;11.23;4.15;;;13.80;99.90;;;;;;5010973;28;20251;-89
2023/09/10 05:06:30;;;;;;;5.70;3.40;;;13.80;99.90;;;;;;5030816;28;20640;-89
2023/09/10 05:08:58;;;;;;;8.52;3.58;;;13.80;99.90;;;;;;5032894;28;20234;-89
2023/09/10 05:11:27;;;;;;;8.15;3.58;;;13.80;99.90;;;;;;5040379;28;20185;-89
2023/09/10 05:13:55;;;;;;;6.25;3.70;;;13.80;99.90;;;;;;5036126;28;20213;-88
2023/09/10 05:16:25;;;;;;;6.40;3.17;;;13.90;99.90;;;;;;5043776;28;20189;-88
2023/09/10 05:18:53;;;;;;;7.55;3.30;;;13.80;99.90;;;;;;5036117;28;20244;-88
2023/09/10 05:21:21;;;;;;;5.40;3.20;;;13.80;99.90;;;;;;5028749;28;20687;-89
2023/09/10 05:23:48;;;;;;;9.02;3.55;;;13.70;99.90;;;;;;5017043;28;20891;-89
2023/09/10 05:26:16;;;;;;;7.97;3.75;;;13.70;99.90;;;;;;5031453;28;20174;-89
2023/09/10 05:28:44;;;;;;;9.30;4.05;;;13.80;99.90;;;;;;5044551;28;20181;-88
2023/09/10 05:31:13;;;;;;;5.47;3.55;;;13.80;99.90;;;;;;5039963;28;20193;-89
2023/09/10 05:33:42;;;;;;;6.00;3.40;;;13.80;99.90;;;;;;5033690;28;20190;-89
2023/09/10 05:36:09;;;;;;;9.85;3.42;;;13.80;99.90;;;;;;5032353;28;20690;-89
2023/09/10 05:38:37;;;;;;;5.78;3.53;;;13.80;99.90;;;;;;5020472;28;20280;-88
2023/09/10 05:41:07;;;;;;;5.07;3.47;;;13.80;99.90;;;;;;5033852;28;20278;-89
2023/09/10 05:43:35;;;;;;;6.60;3.50;;;13.80;99.90;;;;;;5019249;28;20205;-90
2023/09/10 05:46:03;;;;;;;5.82;3.28;;;13.80;99.90;;;;;;5014730;28;20227;-90
2023/09/10 05:48:34;;;;;;;7.10;3.60;;;13.90;99.90;;;;;;5032921;28;20209;-88
2023/09/10 05:51:02;;;;;;;9.80;3.45;;;13.90;99.90;;;;;;5017534;28;20644;-89
2023/09/10 05:53:30;;;;;;;6.38;3.67;;;13.90;99.90;;;;;;5030867;28;20192;-89
2023/09/10 05:56:01;;;;;;;6.97;3.60;;;13.80;99.90;;;;;;5023151;28;20719;-89
2023/09/10 05:58:30;;;;;;;4.22;2.97;;;13.80;99.90;;;;;;5034561;28;20702;-89
2023/09/10 06:00:58;;;;;;;11.63;3.63;;;13.90;99.90;;;;;;5025828;28;20185;-89
2023/09/10 06:03:27;;;;;;;8.13;4.55;;;13.90;99.90;;;;;;5020128;28;20214;-88
2023/09/10 06:05:58;;;;;;;10.57;4.70;;;13.90;99.90;;;;;;5022236;28;20748;-89
2023/09/10 06:08:31;;;;;;;11.10;4.13;;;13.80;99.90;;;;;;5011125;28;20177;-89
2023/09/10 06:10:59;;;;;;;6.40;3.75;;;13.70;99.90;;;;;;5044921;28;20189;-90
2023/09/10 06:13:28;;;;;;;6.70;3.97;;;13.70;99.90;;;;;;5037336;28;20193;-89
2023/09/10 06:15:57;;;;;;;5.80;3.90;;;13.70;99.90;;;;;;5048694;28;20561;-86
2023/09/10 06:18:25;;;;;;;5.95;3.25;;;13.60;99.90;;;;;;5036616;28;20202;-89
2023/09/10 06:20:53;;;;;;;7.15;3.25;;;13.70;99.90;;;;;;5046419;28;20185;-88
2023/09/10 06:23:20;;;;;;;9.98;4.07;;;13.70;99.90;;;;;;5040440;28;20800;-88
2023/09/10 06:25:49;;;;;;;7.65;3.80;;;13.70;99.90;;;;;;5030224;28;20889;-89
2023/09/10 06:28:18;;;;;;;10.40;3.45;;;13.80;99.90;;;;;;5040215;28;20231;-90
2023/09/10 06:30:45;;;;;;;8.82;3.95;;;13.90;99.90;;;;;;5013801;28;20187;-91
2023/09/10 06:33:13;;;;;;;8.75;4.07;;;13.90;99.90;;;;;;5014059;28;20227;-90
2023/09/10 06:35:41;;;;;;;7.22;3.90;;;13.80;99.90;;;;;;5039125;28;20280;-90
2023/09/10 06:38:09;;;;;;;11.38;4.43;;;13.90;99.90;;;;;;5051121;28;20189;-91
2023/09/10 06:40:38;;;;;;;7.40;4.38;;;13.90;99.90;;;;;;4995559;28;20187;-90
2023/09/10 06:43:08;;;;;;;11.70;4.70;;;14.00;99.90;;;;;;5012330;28;20232;-91
2023/09/10 06:45:53;;;;;;;9.00;4.07;;;14.00;99.90;;;;;;5015146;28;20236;-92
2023/09/10 06:48:22;;;;;;;8.27;4.07;;;14.00;99.90;;;;;;5041898;28;20190;-91
2023/09/10 06:50:49;;;;;;;11.23;4.15;;;14.00;99.90;;;;;;5029878;28;20235;-91
2023/09/10 06:53:17;;;;;;;7.93;4.25;;;14.00;99.90;;;;;;5029380;28;20666;-91
2023/09/10 06:55:45;;;;;;;8.57;4.88;;;14.00;99.90;;;;;;5031009;28;20201;-91
2023/09/10 06:58:14;;;;;;;9.32;4.40;;;14.10;99.90;;;;;;5032119;28;20211;-91
2023/09/10 07:00:42;;;;;;;7.22;4.30;;;14.10;99.90;;;;;;5040650;28;20185;-92
2023/09/10 07:03:11;;;;;;;13.50;4.53;;;14.20;99.90;;;;;;5041396;28;20181;-90
2023/09/10 07:05:43;;;;;;;8.32;4.28;;;14.20;99.90;;;;;;5009950;28;20202;-91
2023/09/10 07:08:11;;;;;;;5.70;3.95;;;14.20;99.90;;;;;;4993774;28;20202;-90
2023/09/10 07:10:39;;;;;;;12.13;4.32;;;14.20;99.90;;;;;;5009896;28;20191;-91
2023/09/10 07:13:07;;;;;;;6.63;3.88;;;14.20;99.90;;;;;;5009853;28;20221;-91
2023/09/10 07:15:36;;;;;;;9.15;4.10;;;14.30;99.90;;;;;;5025993;28;20182;-90
2023/09/10 07:18:04;;;;;;;6.90;3.97;;;14.20;99.90;;;;;;5009465;28;20199;-90
2023/09/10 07:20:32;;;;;;;11.38;4.32;;;14.20;99.90;;;;;;5011873;28;20614;-92
2023/09/10 07:23:00;;;;;;;9.18;4.15;;;14.20;99.90;;;;;;5028973;28;20550;-91
2023/09/10 07:25:28;;;;;;;7.57;4.15;;;14.20;99.90;;;;;;5032431;28;20209;-91
2023/09/10 07:27:56;;;;;;;8.85;3.67;;;14.30;99.90;;;;;;5049063;28;20257;-91
2023/09/10 07:30:24;;;;;;;10.27;4.13;;;14.20;99.90;;;;;;5047605;28;20210;-91
2023/09/10 07:32:52;;;;;;;6.95;4.40;;;14.30;99.90;;;;;;5012673;28;20191;-90
2023/09/10 07:35:20;;;;;;;6.45;4.05;;;14.40;99.90;;;;;;5050099;28;20256;-90
2023/09/10 07:37:48;;;;;;;13.77;4.97;;;14.40;99.90;;;;;;5049077;28;20663;-92
2023/09/10 07:40:16;;;;;;;7.25;3.85;;;14.40;99.90;;;;;;5043815;28;20188;-93
2023/09/10 07:42:44;;;;;;;7.55;3.90;;;14.40;99.90;;;;;;5012517;28;20259;-89
2023/09/10 07:45:14;;;;;;;8.07;4.30;;;14.40;99.90;;;;;;5029713;28;20230;-89
2023/09/10 07:47:42;;;;;;;8.30;4.75;;;14.60;99.90;;;;;;5012450;28;20247;-92
2023/09/10 07:50:10;;;;;;;8.73;4.40;;;14.70;99.90;;;;;;5028569;28;20190;-92
2023/09/10 07:52:38;;;;;;;7.75;4.00;;;14.70;99.90;;;;;;5045673;28;20802;-92
2023/09/10 07:55:06;;;;;;;9.75;4.38;;;14.70;99.90;;;;;;5014646;28;20222;-90
2023/09/10 07:57:34;;;;;;;8.80;3.97;;;14.80;99.90;;;;;;5025235;28;20190;-90
2023/09/10 08:00:03;;;;;;;8.63;3.85;;;14.80;99.90;;;;;;5028519;28;20246;-91
2023/09/10 08:02:37;;;;;;;7.43;4.15;;;14.90;99.90;;;;;;5019759;28;20268;-92
2023/09/10 08:05:08;;;;;;;9.80;4.15;;;14.90;99.90;;;;;;5049276;28;20276;-92
2023/09/10 08:07:36;;;;;;;6.55;3.90;;;14.90;99.90;;;;;;5025651;28;20225;-92
2023/09/10 08:10:04;;;;;;;9.10;4.03;;;15.00;99.90;;;;;;5016898;28;20186;-91
2023/09/10 08:12:32;;;;;;;11.63;4.45;;;14.90;99.90;;;;;;5048980;28;20189;-93
2023/09/10 08:15:01;;;;;;;7.10;4.22;;;15.00;99.90;;;;;;5042014;28;20594;-92
2023/09/10 08:17:29;;;;;;;7.07;4.20;;;15.10;99.90;;;;;;5028974;28;20221;-93
2023/09/10 08:19:57;;;;;;;8.38;3.72;;;15.10;99.90;;;;;;5012215;28;20247;-91
2023/09/10 08:22:24;;;;;;;9.38;3.65;;;15.20;99.90;;;;;;5014457;28;20194;-90
2023/09/10 08:24:55;;;;;;;11.73;4.55;;;15.20;99.90;;;;;;5043522;28;20255;-91
2023/09/10 08:27:23;;;;;;;7.57;4.03;;;15.30;99.90;;;;;;5048535;28;20193;-93
2023/09/10 08:29:50;;;;;;;8.00;4.05;;;15.40;99.90;;;;;;5023538;28;20553;-92
2023/09/10 08:32:18;;;;;;;5.90;3.95;;;15.40;99.90;;;;;;5028745;28;20182;-92
2023/09/10 08:34:46;;;;;;;9.65;4.40;;;15.50;99.90;;;;;;5010077;28;20717;-90
2023/09/10 08:37:14;;;;;;;7.45;3.78;;;15.50;99.90;;;;;;4995386;28;20222;-91
2023/09/10 08:39:41;;;;;;;11.73;4.20;;;15.60;99.90;;;;;;5011286;28;20202;-92
2023/09/10 08:42:50;;;;;;;10.52;4.43;;;15.50;99.90;;;;;;5027198;28;20186;-92
2023/09/10 08:45:19;;;;;;;11.15;4.18;;;15.60;99.90;;;;;;4978821;28;20231;-94
2023/09/10 08:47:48;;;;;;;11.02;4.32;;;15.70;99.90;;;;;;5024460;28;20214;-92
2023/09/10 08:50:18;;;;;;;11.40;4.32;;;15.80;99.90;;;;;;5044705;28;20206;-91
2023/09/10 08:52:48;;;;;;;11.48;4.10;;;15.80;99.90;;;;;;5047391;28;20197;-91
2023/09/10 08:55:16;;;;;;;10.27;4.15;;;15.90;99.90;;;;;;5047543;28;20242;-91
2023/09/10 08:57:45;;;;;;;8.40;4.00;;;16.00;99.90;;;;;;5038393;28;20190;-91
2023/09/10 09:00:13;;;;;;;10.57;4.15;;;15.90;99.90;;;;;;5023561;28;20702;-92
2023/09/10 09:02:44;;;;;;;7.82;4.50;;;16.00;99.90;;;;;;4996817;28;20566;-93
2023/09/10 09:05:12;;;;;;;12.57;3.90;;;16.00;99.90;;;;;;5019898;28;20213;-92
2023/09/10 09:08:07;;;;;;;9.18;4.22;;;16.10;99.90;;;;;;5028435;28;20178;-91
2023/09/10 09:10:36;;;;;;;9.15;3.95;;;16.10;99.90;;;;;;5027402;28;20198;-94
2023/09/10 09:13:10;;;;;;;7.75;4.18;;;16.10;99.90;;;;;;5004483;28;20195;-91
2023/09/10 09:15:39;;;;;;;9.23;4.28;;;16.20;99.90;;;;;;5012342;28;20189;-91
2023/09/10 09:18:11;;;;;;;11.25;4.63;;;16.10;99.90;;;;;;5027976;28;20194;-91
2023/09/10 09:20:44;;;;;;;6.97;3.67;;;16.20;99.90;;;;;;5011865;28;20235;-91
2023/09/10 09:23:31;;;;;;;9.55;4.68;;;16.20;99.90;;;;;;5023158;28;20254;-91
2023/09/10 09:26:01;;;;;;;9.35;4.50;;;16.20;99.90;;;;;;5052393;28;20250;-88
2023/09/10 09:28:31;;;;;;;7.10;3.50;;;16.20;99.90;;;;;;5041510;28;20193;-92
2023/09/10 09:30:59;;;;;;;10.13;4.15;;;16.30;99.90;;;;;;5035050;28;20274;-91
2023/09/10 09:33:27;;;;;;;9.80;4.18;;;16.50;99.90;;;;;;5030680;28;20186;-91
2023/09/10 09:36:04;;;;;;;9.52;4.20;;;16.80;99.90;;;;;;5037472;28;20202;-92
2023/09/10 09:38:32;;;;;;;9.68;4.47;;;17.00;99.90;;;;;;5030327;28;20202;-91
2023/09/10 09:41:04;;;;;;;8.05;4.10;;;16.90;99.90;;;;;;5029931;28;20196;-90
2023/09/10 09:43:36;;;;;;;8.93;4.25;;;16.80;99.90;;;;;;5030067;28;20250;-92
2023/09/10 09:46:04;;;;;;;10.20;3.72;;;16.90;99.90;;;;;;5029825;28;20578;-92
2023/09/10 09:48:34;;;;;;;10.38;3.95;;;17.00;99.90;;;;;;5030095;28;20226;-91
2023/09/10 09:51:03;;;;;;;10.00;4.38;;;17.00;99.90;;;;;;5019653;28;20634;-89
2023/09/10 09:53:32;;;;;;;7.85;3.55;;;17.00;99.90;;;;;;5049970;28;20186;-88
2023/09/10 09:56:05;;;;;;;8.10;3.60;;;17.00;99.90;;;;;;5026349;28;20190;-92
2023/09/10 09:58:33;;;;;;;6.50;4.10;;;17.00;99.90;;;;;;5029628;28;20198;-91
2023/09/10 10:01:01;;;;;;;8.88;3.53;;;17.10;99.90;;;;;;5010783;28;20522;-92
2023/09/10 10:03:31;;;;;;;9.50;3.80;;;17.30;99.90;;;;;;5011552;28;20194;-92
2023/09/10 10:05:59;;;;;;;11.57;4.18;;;17.50;99.90;;;;;;4994052;28;20636;-92
2023/09/10 10:08:32;;;;;;;13.02;4.45;;;17.70;99.90;;;;;;5001431;28;20190;-92
2023/09/10 10:11:00;;;;;;;14.50;3.95;;;17.70;99.90;;;;;;5030039;28;20224;-91
2023/09/10 10:13:28;;;;;;;6.70;4.00;;;17.60;99.90;;;;;;5030083;28;20182;-91
2023/09/10 10:15:56;;;;;;;7.25;3.88;;;17.70;99.90;;;;;;5014210;28;20231;-92
2023/09/10 10:18:27;;;;;;;7.78;3.63;;;17.80;99.90;;;;;;5015181;28;20201;-89
2023/09/10 10:20:58;;;;;;;9.50;3.95;;;17.80;99.90;;;;;;5050126;28;20213;-91
2023/09/10 10:23:27;;;;;;;7.53;3.70;;;17.80;99.90;;;;;;5045198;28;20212;-89
2023/09/10 10:26:01;;;;;;;10.05;3.28;;;17.80;99.90;;;;;;5034715;28;20255;-91
2023/09/10 10:28:30;;;;;;;6.85;3.72;;;17.90;99.90;;;;;;5033677;28;20185;-91
2023/09/10 10:31:11;;;;;;;8.55;4.18;;;18.00;99.90;;;;;;5035349;27;20268;-91
2023/09/10 10:33:48;;;;;;;7.45;3.20;;;18.00;99.90;;;;;;5039109;28;20193;-93
2023/09/10 10:36:46;;;;;;;7.22;3.17;;;18.00;99.90;;;;;;5014793;28;20196;-91
2023/09/10 10:39:17;;;;;;;7.55;3.40;;;18.00;99.90;;;;;;5003177;28;20226;-92
2023/09/10 10:41:52;;;;;;;7.53;3.20;;;18.10;99.90;;;;;;4999150;28;20198;-92
2023/09/10 10:44:26;;;;;;;7.57;3.95;;;18.10;99.90;;;;;;5021438;28;20225;-91
2023/09/10 10:46:59;;;;;;;10.85;3.55;;;18.20;99.90;;;;;;5032491;28;20327;-91
2023/09/10 10:49:30;;;;;;;8.73;4.18;;;18.40;99.90;;;;;;5023779;28;20262;-93
2023/09/10 10:52:05;;;;;;;10.68;2.97;;;18.40;99.90;;;;;;5005252;28;20216;-92
2023/09/10 10:54:35;;;;;;;9.68;3.58;;;18.50;99.90;;;;;;5031852;28;20200;-92
2023/09/10 10:57:06;;;;;;;6.57;3.47;;;18.60;99.90;;;;;;5011324;28;20659;-91
2023/09/10 10:59:34;;;;;;;9.90;3.67;;;18.70;99.90;;;;;;5024707;28;20201;-93
2023/09/10 11:02:22;;;;;;;8.43;3.83;;;18.80;99.90;;;;;;5014326;28;20198;-91
2023/09/10 11:05:05;;;;;;;8.55;3.63;;;19.00;99.90;;;;;;5016874;28;20687;-90
2023/09/10 11:07:34;;;;;;;7.53;3.90;;;19.10;99.90;;;;;;5078408;28;20721;-92
2023/09/10 11:10:27;;;;;;;8.65;3.40;;;19.30;99.90;;;;;;5025675;28;20301;-92
2023/09/10 11:13:11;;;;;;;5.90;3.13;;;19.40;99.90;;;;;;5009563;28;20329;-92
2023/09/10 11:16:03;;;;;;;8.50;2.90;;;19.40;99.90;;;;;;5039757;28;20199;-92
2023/09/10 11:18:35;;;;;;;8.48;3.50;;;19.40;99.90;;;;;;5048839;28;20200;-92
2023/09/10 11:21:10;;;;;;;11.07;3.33;;;19.30;99.90;;;;;;5050136;28;20695;-91
2023/09/10 11:23:40;;;;;;;7.07;3.20;;;19.40;99.90;;;;;;5015515;28;20211;-90
2023/09/10 11:26:14;;;;;;;7.60;3.25;;;19.50;99.90;;;;;;5098023;28;20210;-93
2023/09/10 11:28:59;;;;;;;7.85;3.08;;;19.80;99.90;;;;;;5011685;28;20558;-93
2023/09/10 11:31:38;;;;;;;6.63;2.88;;;19.90;99.90;;;;;;5024412;28;20194;-94
2023/09/10 11:34:18;;;;;;;6.07;3.10;;;20.00;99.90;;;;;;5030316;28;20200;-91
2023/09/10 11:36:50;;;;;;;6.03;2.90;;;20.00;99.90;;;;;;5030182;28;20200;-93
2023/09/10 11:39:19;;;;;;;6.75;3.10;;;19.90;99.90;;;;;;5030840;28;20202;-94
2023/09/10 11:41:52;;;;;;;7.25;3.03;;;20.00;99.90;;;;;;5047664;28;20245;-93
2023/09/10 11:44:20;;;;;;;8.32;3.78;;;19.90;99.90;;;;;;5026310;28;20183;-92
2023/09/10 11:46:51;;;;;;;5.32;2.65;;;19.90;99.90;;;;;;5005618;28;20312;-94
2023/09/10 11:49:24;;;;;;;6.55;3.05;;;19.90;99.90;;;;;;5030438;28;20195;-92
2023/09/10 11:51:57;;;;;;;5.85;3.05;;;19.90;99.90;;;;;;5011109;28;20175;-93
2023/09/10 11:54:26;;;;;;;9.70;3.15;;;20.00;99.90;;;;;;5014878;28;20928;-92
2023/09/10 11:56:57;;;;;;;6.75;2.97;;;20.20;99.90;;;;;;5031670;28;20190;-93
2023/09/10 11:59:32;;;;;;;5.13;2.70;;;20.20;99.90;;;;;;5043687;28;20201;-92
2023/09/10 12:02:00;;;;;;;8.00;3.13;;;20.20;99.90;;;;;;5019319;28;20189;-93
2023/09/10 12:04:33;;;;;;;7.72;3.22;;;20.10;99.90;;;;;;5012721;28;20592;-93
2023/09/10 12:07:01;;;;;;;8.88;2.78;;;20.20;99.90;;;;;;5045303;28;20656;-94
2023/09/10 12:09:32;;;;;;;7.43;2.92;;;20.20;99.90;;;;;;5015640;28;20190;-92
2023/09/10 12:12:08;;;;;;;6.47;2.75;;;20.20;99.90;;;;;;5012184;28;20732;-92
2023/09/10 12:14:37;;;;;;;8.27;3.17;;;20.30;99.90;;;;;;5011898;28;20227;-92
2023/09/10 12:17:05;;;;;;;5.80;2.88;;;20.30;99.90;;;;;;5028748;28;20992;-93
2023/09/10 12:19:34;;;;;;;5.13;2.90;;;20.40;99.90;;;;;;5097830;28;20190;-92
2023/09/10 12:22:04;;;;;;;4.57;2.92;;;20.30;99.90;;;;;;5037157;28;20190;-94
2023/09/10 12:24:32;;;;;;;9.45;2.80;;;20.30;99.90;;;;;;5021653;28;20201;-93
2023/09/10 12:27:00;;;;;;;7.18;3.10;;;20.30;99.90;;;;;;5048751;28;20221;-93
2023/09/10 12:29:29;;;;;;;11.48;3.03;;;20.30;99.90;;;;;;5049413;28;20186;-93
2023/09/10 12:31:57;;;;;;;7.43;2.95;;;20.40;99.90;;;;;;5014758;28;20192;-93
2023/09/10 12:34:25;;;;;;;8.13;2.88;;;20.40;99.90;;;;;;5032166;28;20186;-92
2023/09/10 12:36:53;;;;;;;5.25;2.45;;;20.60;99.90;;;;;;5016420;28;20202;-92
2023/09/10 12:39:23;;;;;;;8.57;3.13;;;20.80;99.90;;;;;;5042255;28;20262;-91
2023/09/10 12:42:01;;;;;;;12.57;2.97;;;20.90;99.90;;;;;;5031809;28;20192;-92
2023/09/10 12:44:33;;;;;;;9.65;2.92;;;21.00;99.90;;;;;;5013053;28;20190;-90
2023/09/10 12:47:02;;;;;;;10.45;3.63;;;21.00;99.90;;;;;;5009599;28;20252;-92
2023/09/10 12:49:30;;;;;;;7.97;2.80;;;21.10;99.90;;;;;;5014472;28;20182;-91
2023/09/10 12:51:58;;;;;;;10.43;3.10;;;21.00;99.90;;;;;;5035397;28;20204;-92
2023/09/10 12:54:26;;;;;;;10.30;3.45;;;20.90;99.90;;;;;;5022204;28;20189;-93
2023/09/10 12:56:54;;;;;;;8.52;3.00;;;20.80;99.90;;;;;;5005838;28;20619;-93
2023/09/10 12:59:22;;;;;;;7.32;2.95;;;20.70;99.90;;;;;;5007702;28;20190;-91
2023/09/10 13:01:50;;;;;;;10.20;3.53;;;20.60;99.90;;;;;;5008239;28;20225;-91